sensor_id;sensor_type;location;lat;lon;timestamp;temperature;humidity
22674;DHT22;11504;43.334;21.918;2023-02-21T00:01:22;7.9;100.0
22674;DHT22;11504;43.334;21.918;2023-02-21T00:05:59;7.9;100.0
22674;DHT22;11504;43.334;21.918;2023-02-21T00:10:36;7.8;100.0
22674;DHT22;11504;43.334;21.918;2023-02-21T00:15:12;7.8;100.0
22674;DHT22;11504;43.334;21.918;2023-02-21T00:19:49;7.6;100.0
22674;DHT22;11504;43.334;21.918;2023-02-21T00:24:26;7.6;100.0
22674;DHT22;11504;43.334;21.918;2023-02-21T00:29:02;7.4;100.0
22674;DHT22;11504;43.334;21.918;2023-02-21T00:33:40;7.4;100.0
22674;DHT22;11504;43.334;21.918;2023-02-21T00:38:17;7.2;100.0
22674;DHT22;11504;43.334;21.918;2023-02-21T00:42:53;7.2;100.0
22674;DHT22;11504;43.334;21.918;2023-02-21T00:47:29;7.0;100.0
22674;DHT22;11504;43.334;21.918;2023-02-21T00:52:06;7.0;100.0
22674;DHT22;11504;43.334;21.918;2023-02-21T00:56:43;7.0;100.0
22674;DHT22;11504;43.334;21.918;2023-02-21T01:01:20;6.7;100.0
22674;DHT22;11504;43.334;21.918;2023-02-21T01:05:57;6.7;100.0
22674;DHT22;11504;43.334;21.918;2023-02-21T01:10:34;6.4;100.0
22674;DHT22;11504;43.334;21.918;2023-02-21T01:15:10;6.4;100.0
22674;DHT22;11504;43.334;21.918;2023-02-21T01:19:48;6.5;100.0
22674;DHT22;11504;43.334;21.918;2023-02-21T01:24:25;6.5;100.0
22674;DHT22;11504;43.334;21.918;2023-02-21T01:29:03;6.6;100.0
22674;DHT22;11504;43.334;21.918;2023-02-21T01:33:41;6.6;100.0
22674;DHT22;11504;43.334;21.918;2023-02-21T01:38:18;6.7;100.0
22674;DHT22;11504;43.334;21.918;2023-02-21T01:42:55;6.7;100.0
22674;DHT22;11504;43.334;21.918;2023-02-21T01:47:33;6.8;100.0
22674;DHT22;11504;43.334;21.918;2023-02-21T01:52:11;6.8;100.0
22674;DHT22;11504;43.334;21.918;2023-02-21T01:56:48;6.8;100.0
22674;DHT22;11504;43.334;21.918;2023-02-21T02:06:50;6.6;100.0
22674;DHT22;11504;43.334;21.918;2023-02-21T02:11:56;6.4;100.0
22674;DHT22;11504;43.334;21.918;2023-02-21T02:17:41;6.4;100.0
22674;DHT22;11504;43.334;21.918;2023-02-21T02:23:54;6.4;100.0
22674;DHT22;11504;43.334;21.918;2023-02-21T02:32:03;6.5;100.0
22674;DHT22;11504;43.334;21.918;2023-02-21T02:39:56;6.3;100.0
22674;DHT22;11504;43.334;21.918;2023-02-21T02:45:13;6.3;100.0
22674;DHT22;11504;43.334;21.918;2023-02-21T02:50:12;6.1;100.0
22674;DHT22;11504;43.334;21.918;2023-02-21T02:55:21;6.1;100.0
22674;DHT22;11504;43.334;21.918;2023-02-21T03:00:22;6.1;100.0
22674;DHT22;11504;43.334;21.918;2023-02-21T03:05:20;6.1;100.0
22674;DHT22;11504;43.334;21.918;2023-02-21T03:10:53;6.1;100.0
22674;DHT22;11504;43.334;21.918;2023-02-21T03:16:03;6.1;100.0
22674;DHT22;11504;43.334;21.918;2023-02-21T03:21:10;6.2;100.0
22674;DHT22;11504;43.334;21.918;2023-02-21T03:26:03;6.2;100.0
22674;DHT22;11504;43.334;21.918;2023-02-21T03:30:52;6.2;100.0
22674;DHT22;11504;43.334;21.918;2023-02-21T03:35:36;6.2;100.0
22674;DHT22;11504;43.334;21.918;2023-02-21T03:40:19;6.1;100.0
22674;DHT22;11504;43.334;21.918;2023-02-21T03:45:02;6.1;100.0
22674;DHT22;11504;43.334;21.918;2023-02-21T03:49:40;5.9;100.0
22674;DHT22;11504;43.334;21.918;2023-02-21T03:54:17;5.9;100.0
22674;DHT22;11504;43.334;21.918;2023-02-21T03:58:53;5.7;100.0
22674;DHT22;11504;43.334;21.918;2023-02-21T04:03:30;5.7;100.0
22674;DHT22;11504;43.334;21.918;2023-02-21T04:08:07;5.5;100.0
22674;DHT22;11504;43.334;21.918;2023-02-21T04:12:46;5.5;100.0
22674;DHT22;11504;43.334;21.918;2023-02-21T04:17:23;5.5;100.0
22674;DHT22;11504;43.334;21.918;2023-02-21T04:22:01;5.5;100.0
22674;DHT22;11504;43.334;21.918;2023-02-21T04:26:39;5.5;100.0
22674;DHT22;11504;43.334;21.918;2023-02-21T04:31:18;5.5;100.0
22674;DHT22;11504;43.334;21.918;2023-02-21T04:35:55;5.5;100.0
22674;DHT22;11504;43.334;21.918;2023-02-21T04:40:33;5.4;100.0
22674;DHT22;11504;43.334;21.918;2023-02-21T04:45:09;5.4;100.0
22674;DHT22;11504;43.334;21.918;2023-02-21T04:49:46;5.4;100.0
22674;DHT22;11504;43.334;21.918;2023-02-21T04:54:23;5.4;100.0
22674;DHT22;11504;43.334;21.918;2023-02-21T04:59:00;5.3;100.0
22674;DHT22;11504;43.334;21.918;2023-02-21T05:03:37;5.3;100.0
22674;DHT22;11504;43.334;21.918;2023-02-21T05:08:13;5.2;100.0
22674;DHT22;11504;43.334;21.918;2023-02-21T05:12:50;5.2;100.0
22674;DHT22;11504;43.334;21.918;2023-02-21T05:17:26;5.2;100.0
22674;DHT22;11504;43.334;21.918;2023-02-21T05:22:03;5.1;100.0
22674;DHT22;11504;43.334;21.918;2023-02-21T05:26:40;5.1;100.0
22674;DHT22;11504;43.334;21.918;2023-02-21T05:31:17;4.9;100.0
22674;DHT22;11504;43.334;21.918;2023-02-21T05:35:56;4.9;100.0
22674;DHT22;11504;43.334;21.918;2023-02-21T05:40:34;5.1;100.0
22674;DHT22;11504;43.334;21.918;2023-02-21T05:45:10;5.1;100.0
22674;DHT22;11504;43.334;21.918;2023-02-21T05:49:47;5.2;100.0
22674;DHT22;11504;43.334;21.918;2023-02-21T05:54:24;5.2;100.0
22674;DHT22;11504;43.334;21.918;2023-02-21T05:59:00;6.5;100.0
22674;DHT22;11504;43.334;21.918;2023-02-21T06:03:37;6.5;100.0
22674;DHT22;11504;43.334;21.918;2023-02-21T06:08:13;7.8;100.0
22674;DHT22;11504;43.334;21.918;2023-02-21T06:12:49;7.8;100.0
22674;DHT22;11504;43.334;21.918;2023-02-21T06:17:26;7.8;100.0
22674;DHT22;11504;43.334;21.918;2023-02-21T06:22:02;9.4;100.0
22674;DHT22;11504;43.334;21.918;2023-02-21T06:26:39;9.4;100.0
22674;DHT22;11504;43.334;21.918;2023-02-21T06:31:17;11.1;100.0
22674;DHT22;11504;43.334;21.918;2023-02-21T06:35:57;11.1;100.0
22674;DHT22;11504;43.334;21.918;2023-02-21T06:40:41;12.0;100.0
22674;DHT22;11504;43.334;21.918;2023-02-21T06:45:18;12.0;100.0
22674;DHT22;11504;43.334;21.918;2023-02-21T06:49:55;13.0;100.0
22674;DHT22;11504;43.334;21.918;2023-02-21T06:54:33;13.0;100.0
22674;DHT22;11504;43.334;21.918;2023-02-21T06:59:11;13.7;100.0
22674;DHT22;11504;43.334;21.918;2023-02-21T07:03:48;13.7;100.0
22674;DHT22;11504;43.334;21.918;2023-02-21T07:08:27;14.4;100.0
22674;DHT22;11504;43.334;21.918;2023-02-21T07:13:04;14.4;100.0
22674;DHT22;11504;43.334;21.918;2023-02-21T07:17:41;15.3;100.0
22674;DHT22;11504;43.334;21.918;2023-02-21T07:22:18;15.3;100.0
22674;DHT22;11504;43.334;21.918;2023-02-21T07:26:55;15.3;100.0
22674;DHT22;11504;43.334;21.918;2023-02-21T07:31:32;16.2;100.0
22674;DHT22;11504;43.334;21.918;2023-02-21T07:36:09;16.2;100.0
22674;DHT22;11504;43.334;21.918;2023-02-21T07:40:46;17.2;100.0
22674;DHT22;11504;43.334;21.918;2023-02-21T07:45:24;17.2;100.0
22674;DHT22;11504;43.334;21.918;2023-02-21T07:50:01;18.1;100.0
22674;DHT22;11504;43.334;21.918;2023-02-21T07:54:38;18.1;100.0
22674;DHT22;11504;43.334;21.918;2023-02-21T07:59:15;19.0;100.0
22674;DHT22;11504;43.334;21.918;2023-02-21T08:03:52;19.0;100.0
22674;DHT22;11504;43.334;21.918;2023-02-21T08:08:29;20.0;100.0
22674;DHT22;11504;43.334;21.918;2023-02-21T08:13:06;20.0;100.0
22674;DHT22;11504;43.334;21.918;2023-02-21T08:17:43;20.0;100.0
22674;DHT22;11504;43.334;21.918;2023-02-21T08:22:25;20.0;100.0
22674;DHT22;11504;43.334;21.918;2023-02-21T08:27:02;20.0;100.0
22674;DHT22;11504;43.334;21.918;2023-02-21T08:31:41;20.1;100.0
22674;DHT22;11504;43.334;21.918;2023-02-21T08:36:18;20.1;100.0
22674;DHT22;11504;43.334;21.918;2023-02-21T08:40:56;19.8;100.0
22674;DHT22;11504;43.334;21.918;2023-02-21T08:45:32;19.8;100.0
22674;DHT22;11504;43.334;21.918;2023-02-21T08:50:09;19.5;100.0
22674;DHT22;11504;43.334;21.918;2023-02-21T08:54:47;19.5;100.0
22674;DHT22;11504;43.334;21.918;2023-02-21T08:59:23;20.0;100.0
22674;DHT22;11504;43.334;21.918;2023-02-21T09:04:03;20.0;100.0
22674;DHT22;11504;43.334;21.918;2023-02-21T09:08:40;20.6;100.0
22674;DHT22;11504;43.334;21.918;2023-02-21T09:13:17;20.6;100.0
22674;DHT22;11504;43.334;21.918;2023-02-21T09:17:54;20.0;100.0
22674;DHT22;11504;43.334;21.918;2023-02-21T09:22:31;20.0;100.0
22674;DHT22;11504;43.334;21.918;2023-02-21T09:27:09;20.0;100.0
22674;DHT22;11504;43.334;21.918;2023-02-21T09:31:47;19.5;100.0
22674;DHT22;11504;43.334;21.918;2023-02-21T09:36:25;19.5;100.0
22674;DHT22;11504;43.334;21.918;2023-02-21T09:41:05;20.2;100.0
22674;DHT22;11504;43.334;21.918;2023-02-21T09:45:57;20.2;100.0
22674;DHT22;11504;43.334;21.918;2023-02-21T09:51:15;21.0;100.0
22674;DHT22;11504;43.334;21.918;2023-02-21T09:55:59;21.0;100.0
22674;DHT22;11504;43.334;21.918;2023-02-21T10:01:22;21.2;100.0
22674;DHT22;11504;43.334;21.918;2023-02-21T10:07:13;21.2;100.0
22674;DHT22;11504;43.334;21.918;2023-02-21T10:12:25;21.4;100.0
22674;DHT22;11504;43.334;21.918;2023-02-21T10:17:31;21.4;100.0
22674;DHT22;11504;43.334;21.918;2023-02-21T10:22:32;21.6;100.0
22674;DHT22;11504;43.334;21.918;2023-02-21T10:27:21;21.6;100.0
22674;DHT22;11504;43.334;21.918;2023-02-21T10:32:07;21.8;100.0
22674;DHT22;11504;43.334;21.918;2023-02-21T10:36:47;21.8;100.0
22674;DHT22;11504;43.334;21.918;2023-02-21T10:41:35;21.8;100.0
22674;DHT22;11504;43.334;21.918;2023-02-21T10:46:24;21.8;100.0
22674;DHT22;11504;43.334;21.918;2023-02-21T10:51:31;21.9;100.0
22674;DHT22;11504;43.334;21.918;2023-02-21T10:56:27;21.9;100.0
22674;DHT22;11504;43.334;21.918;2023-02-21T11:01:13;21.8;100.0
22674;DHT22;11504;43.334;21.918;2023-02-21T11:05:57;21.8;100.0
22674;DHT22;11504;43.334;21.918;2023-02-21T11:10:38;21.6;100.0
22674;DHT22;11504;43.334;21.918;2023-02-21T11:15:19;21.6;100.0
22674;DHT22;11504;43.334;21.918;2023-02-21T11:20:04;21.2;100.0
22674;DHT22;11504;43.334;21.918;2023-02-21T11:25:03;21.2;100.0
22674;DHT22;11504;43.334;21.918;2023-02-21T11:29:58;20.9;100.0
22674;DHT22;11504;43.334;21.918;2023-02-21T11:34:49;20.9;100.0
22674;DHT22;11504;43.334;21.918;2023-02-21T11:39:34;20.6;100.0
22674;DHT22;11504;43.334;21.918;2023-02-21T11:44:31;20.6;100.0
22674;DHT22;11504;43.334;21.918;2023-02-21T11:49:25;20.3;100.0
22674;DHT22;11504;43.334;21.918;2023-02-21T11:54:39;20.3;100.0
22674;DHT22;11504;43.334;21.918;2023-02-21T11:59:34;20.2;100.0
22674;DHT22;11504;43.334;21.918;2023-02-21T12:05:30;20.2;100.0
22674;DHT22;11504;43.334;21.918;2023-02-21T12:10:55;20.2;100.0
22674;DHT22;11504;43.334;21.918;2023-02-21T12:16:55;20.2;100.0
22674;DHT22;11504;43.334;21.918;2023-02-21T12:23:10;20.2;100.0
22674;DHT22;11504;43.334;21.918;2023-02-21T12:29:01;20.3;100.0
22674;DHT22;11504;43.334;21.918;2023-02-21T12:35:40;20.3;100.0
22674;DHT22;11504;43.334;21.918;2023-02-21T12:41:40;20.4;100.0
22674;DHT22;11504;43.334;21.918;2023-02-21T12:47:10;20.4;100.0
22674;DHT22;11504;43.334;21.918;2023-02-21T12:52:14;20.5;100.0
22674;DHT22;11504;43.334;21.918;2023-02-21T12:57:15;20.5;100.0
22674;DHT22;11504;43.334;21.918;2023-02-21T13:02:15;20.6;100.0
22674;DHT22;11504;43.334;21.918;2023-02-21T13:07:17;20.6;100.0
22674;DHT22;11504;43.334;21.918;2023-02-21T13:12:16;20.7;100.0
22674;DHT22;11504;43.334;21.918;2023-02-21T13:17:15;20.7;100.0
22674;DHT22;11504;43.334;21.918;2023-02-21T13:24:49;20.8;100.0
22674;DHT22;11504;43.334;21.918;2023-02-21T13:30:11;20.9;100.0
22674;DHT22;11504;43.334;21.918;2023-02-21T13:35:28;20.9;100.0
22674;DHT22;11504;43.334;21.918;2023-02-21T13:40:23;20.9;100.0
22674;DHT22;11504;43.334;21.918;2023-02-21T13:45:24;20.9;100.0
22674;DHT22;11504;43.334;21.918;2023-02-21T13:50:47;20.9;100.0
22674;DHT22;11504;43.334;21.918;2023-02-21T13:55:30;20.9;100.0
22674;DHT22;11504;43.334;21.918;2023-02-21T14:00:49;20.9;100.0
22674;DHT22;11504;43.334;21.918;2023-02-21T14:06:34;20.9;100.0
22674;DHT22;11504;43.334;21.918;2023-02-21T14:11:20;20.9;100.0
22674;DHT22;11504;43.334;21.918;2023-02-21T14:16:18;20.9;100.0
22674;DHT22;11504;43.334;21.918;2023-02-21T14:21:16;20.8;100.0
22674;DHT22;11504;43.334;21.918;2023-02-21T14:26:41;20.8;100.0
22674;DHT22;11504;43.334;21.918;2023-02-21T14:32:22;20.8;100.0
22674;DHT22;11504;43.334;21.918;2023-02-21T14:37:25;20.8;100.0
22674;DHT22;11504;43.334;21.918;2023-02-21T14:42:36;20.8;100.0
22674;DHT22;11504;43.334;21.918;2023-02-21T14:48:32;20.7;100.0
22674;DHT22;11504;43.334;21.918;2023-02-21T14:56:08;20.7;100.0
22674;DHT22;11504;43.334;21.918;2023-02-21T15:02:29;20.6;100.0
22674;DHT22;11504;43.334;21.918;2023-02-21T15:08:01;20.6;100.0
22674;DHT22;11504;43.334;21.918;2023-02-21T15:13:03;20.5;100.0
22674;DHT22;11504;43.334;21.918;2023-02-21T15:17:42;20.5;100.0
22674;DHT22;11504;43.334;21.918;2023-02-21T15:22:44;20.4;100.0
22674;DHT22;11504;43.334;21.918;2023-02-21T15:27:20;20.4;100.0
22674;DHT22;11504;43.334;21.918;2023-02-21T15:31:57;20.3;100.0
22674;DHT22;11504;43.334;21.918;2023-02-21T15:36:35;20.3;100.0
22674;DHT22;11504;43.334;21.918;2023-02-21T15:41:27;20.2;100.0
22674;DHT22;11504;43.334;21.918;2023-02-21T15:46:24;20.2;100.0
22674;DHT22;11504;43.334;21.918;2023-02-21T15:51:21;20.0;100.0
22674;DHT22;11504;43.334;21.918;2023-02-21T15:56:23;20.0;100.0
22674;DHT22;11504;43.334;21.918;2023-02-21T16:01:06;19.8;100.0
22674;DHT22;11504;43.334;21.918;2023-02-21T16:05:46;19.8;100.0
22674;DHT22;11504;43.334;21.918;2023-02-21T16:10:23;19.7;100.0
22674;DHT22;11504;43.334;21.918;2023-02-21T16:15:07;19.7;100.0
22674;DHT22;11504;43.334;21.918;2023-02-21T16:20:16;19.5;100.0
22674;DHT22;11504;43.334;21.918;2023-02-21T16:25:17;19.5;100.0
22674;DHT22;11504;43.334;21.918;2023-02-21T16:30:00;19.3;100.0
22674;DHT22;11504;43.334;21.918;2023-02-21T16:34:37;19.3;100.0
22674;DHT22;11504;43.334;21.918;2023-02-21T16:39:14;18.8;100.0
22674;DHT22;11504;43.334;21.918;2023-02-21T16:43:50;18.8;100.0
22674;DHT22;11504;43.334;21.918;2023-02-21T16:48:30;18.3;100.0
22674;DHT22;11504;43.334;21.918;2023-02-21T16:53:11;18.3;100.0
22674;DHT22;11504;43.334;21.918;2023-02-21T16:57:51;18.3;100.0
22674;DHT22;11504;43.334;21.918;2023-02-21T17:02:34;18.0;100.0
22674;DHT22;11504;43.334;21.918;2023-02-21T17:07:11;18.0;100.0
22674;DHT22;11504;43.334;21.918;2023-02-21T17:11:48;17.6;100.0
22674;DHT22;11504;43.334;21.918;2023-02-21T17:16:25;17.6;100.0
22674;DHT22;11504;43.334;21.918;2023-02-21T17:21:03;17.3;100.0
22674;DHT22;11504;43.334;21.918;2023-02-21T17:25:42;17.3;100.0
22674;DHT22;11504;43.334;21.918;2023-02-21T17:30:23;17.0;100.0
22674;DHT22;11504;43.334;21.918;2023-02-21T17:35:00;17.0;100.0
22674;DHT22;11504;43.334;21.918;2023-02-21T17:39:37;16.8;100.0
22674;DHT22;11504;43.334;21.918;2023-02-21T17:44:15;16.8;100.0
22674;DHT22;11504;43.334;21.918;2023-02-21T17:48:54;16.5;100.0
22674;DHT22;11504;43.334;21.918;2023-02-21T17:53:31;16.5;100.0
22674;DHT22;11504;43.334;21.918;2023-02-21T17:58:08;16.5;100.0
22674;DHT22;11504;43.334;21.918;2023-02-21T18:02:45;16.4;100.0
22674;DHT22;11504;43.334;21.918;2023-02-21T18:07:23;16.4;100.0
22674;DHT22;11504;43.334;21.918;2023-02-21T18:12:00;16.2;100.0
22674;DHT22;11504;43.334;21.918;2023-02-21T18:16:36;16.2;100.0
22674;DHT22;11504;43.334;21.918;2023-02-21T18:21:13;16.2;100.0
22674;DHT22;11504;43.334;21.918;2023-02-21T18:25:50;16.2;100.0
22674;DHT22;11504;43.334;21.918;2023-02-21T18:39:42;15.7;100.0
22674;DHT22;11504;43.334;21.918;2023-02-21T18:44:19;15.7;100.0
22674;DHT22;11504;43.334;21.918;2023-02-21T18:48:55;15.7;100.0
22674;DHT22;11504;43.334;21.918;2023-02-21T18:53:32;15.7;100.0
22674;DHT22;11504;43.334;21.918;2023-02-21T18:58:10;15.7;100.0
22674;DHT22;11504;43.334;21.918;2023-02-21T19:02:47;15.4;100.0
22674;DHT22;11504;43.334;21.918;2023-02-21T19:07:23;15.4;100.0
22674;DHT22;11504;43.334;21.918;2023-02-21T19:12:02;15.0;100.0
22674;DHT22;11504;43.334;21.918;2023-02-21T19:16:39;15.0;100.0
22674;DHT22;11504;43.334;21.918;2023-02-21T19:21:16;14.8;100.0
22674;DHT22;11504;43.334;21.918;2023-02-21T19:25:52;14.8;100.0
22674;DHT22;11504;43.334;21.918;2023-02-21T19:30:34;14.5;100.0
22674;DHT22;11504;43.334;21.918;2023-02-21T19:35:11;14.5;100.0
22674;DHT22;11504;43.334;21.918;2023-02-21T19:39:47;14.4;100.0
22674;DHT22;11504;43.334;21.918;2023-02-21T19:44:23;14.4;100.0
22674;DHT22;11504;43.334;21.918;2023-02-21T19:49:00;14.3;100.0
22674;DHT22;11504;43.334;21.918;2023-02-21T19:53:37;14.3;100.0
22674;DHT22;11504;43.334;21.918;2023-02-21T19:58:14;14.3;100.0
22674;DHT22;11504;43.334;21.918;2023-02-21T20:02:51;14.1;100.0
22674;DHT22;11504;43.334;21.918;2023-02-21T20:07:28;14.1;100.0
22674;DHT22;11504;43.334;21.918;2023-02-21T20:12:07;13.9;100.0
22674;DHT22;11504;43.334;21.918;2023-02-21T20:16:45;13.9;100.0
22674;DHT22;11504;43.334;21.918;2023-02-21T20:21:28;13.5;100.0
22674;DHT22;11504;43.334;21.918;2023-02-21T20:26:10;13.5;100.0
22674;DHT22;11504;43.334;21.918;2023-02-21T20:30:49;13.1;100.0
22674;DHT22;11504;43.334;21.918;2023-02-21T20:35:26;13.1;100.0
22674;DHT22;11504;43.334;21.918;2023-02-21T20:40:06;13.0;100.0
22674;DHT22;11504;43.334;21.918;2023-02-21T20:44:44;13.0;100.0
22674;DHT22;11504;43.334;21.918;2023-02-21T20:49:20;12.8;100.0
22674;DHT22;11504;43.334;21.918;2023-02-21T20:53:57;12.8;100.0
22674;DHT22;11504;43.334;21.918;2023-02-21T20:58:33;12.8;100.0
22674;DHT22;11504;43.334;21.918;2023-02-21T21:03:10;12.8;100.0
22674;DHT22;11504;43.334;21.918;2023-02-21T21:07:47;12.8;100.0
22674;DHT22;11504;43.334;21.918;2023-02-21T21:12:24;12.7;100.0
22674;DHT22;11504;43.334;21.918;2023-02-21T21:17:03;12.7;100.0
22674;DHT22;11504;43.334;21.918;2023-02-21T21:21:42;12.4;100.0
22674;DHT22;11504;43.334;21.918;2023-02-21T21:26:18;12.4;100.0
22674;DHT22;11504;43.334;21.918;2023-02-21T21:30:55;12.2;100.0
22674;DHT22;11504;43.334;21.918;2023-02-21T21:35:32;12.2;100.0
22674;DHT22;11504;43.334;21.918;2023-02-21T21:40:10;12.2;100.0
22674;DHT22;11504;43.334;21.918;2023-02-21T21:44:51;12.2;100.0
22674;DHT22;11504;43.334;21.918;2023-02-21T21:58:46;11.5;100.0
22674;DHT22;11504;43.334;21.918;2023-02-21T22:03:23;11.5;100.0
22674;DHT22;11504;43.334;21.918;2023-02-21T22:07:59;11.5;100.0
22674;DHT22;11504;43.334;21.918;2023-02-21T22:12:36;11.5;100.0
22674;DHT22;11504;43.334;21.918;2023-02-21T22:17:12;11.5;100.0
22674;DHT22;11504;43.334;21.918;2023-02-21T22:21:51;11.5;100.0
22674;DHT22;11504;43.334;21.918;2023-02-21T22:26:31;11.5;100.0
22674;DHT22;11504;43.334;21.918;2023-02-21T22:31:07;11.5;100.0
22674;DHT22;11504;43.334;21.918;2023-02-21T22:35:45;11.5;100.0
22674;DHT22;11504;43.334;21.918;2023-02-21T22:40:29;11.4;100.0
22674;DHT22;11504;43.334;21.918;2023-02-21T22:45:08;11.4;100.0
22674;DHT22;11504;43.334;21.918;2023-02-21T22:49:45;11.2;100.0
22674;DHT22;11504;43.334;21.918;2023-02-21T22:54:22;11.2;100.0
22674;DHT22;11504;43.334;21.918;2023-02-21T22:58:58;11.1;100.0
22674;DHT22;11504;43.334;21.918;2023-02-21T23:03:36;11.1;100.0
22674;DHT22;11504;43.334;21.918;2023-02-21T23:08:21;11.1;100.0
22674;DHT22;11504;43.334;21.918;2023-02-21T23:12:59;11.1;100.0
22674;DHT22;11504;43.334;21.918;2023-02-21T23:17:36;11.1;100.0
22674;DHT22;11504;43.334;21.918;2023-02-21T23:22:13;11.0;100.0
22674;DHT22;11504;43.334;21.918;2023-02-21T23:26:51;11.0;100.0
22674;DHT22;11504;43.334;21.918;2023-02-21T23:31:28;10.9;100.0
22674;DHT22;11504;43.334;21.918;2023-02-21T23:36:07;10.9;100.0
22674;DHT22;11504;43.334;21.918;2023-02-21T23:40:52;10.6;100.0
22674;DHT22;11504;43.334;21.918;2023-02-21T23:45:29;10.6;100.0
22674;DHT22;11504;43.334;21.918;2023-02-21T23:50:08;10.4;100.0
22674;DHT22;11504;43.334;21.918;2023-02-21T23:54:44;10.4;100.0
22674;DHT22;11504;43.334;21.918;2023-02-21T23:59:21;10.2;100.0
